sensor_id;sensor_type;location;lat;lon;timestamp;P1;durP1;ratioP1;P2;durP2;ratioP2
9094;SDS011;4583;49.796;9.902;2023-05-10T00:01:38;2.23;;;1.60;;
9094;SDS011;4583;49.796;9.902;2023-05-10T00:11:40;1.73;;;1.60;;
9094;SDS011;4583;49.796;9.902;2023-05-10T00:21:42;2.13;;;1.70;;
9094;SDS011;4583;49.796;9.902;2023-05-10T00:31:44;1.70;;;1.60;;
9094;SDS011;4583;49.796;9.902;2023-05-10T00:41:46;1.83;;;1.63;;
9094;SDS011;4583;49.796;9.902;2023-05-10T00:51:48;2.00;;;1.50;;
9094;SDS011;4583;49.796;9.902;2023-05-10T01:01:51;2.77;;;1.70;;
9094;SDS011;4583;49.796;9.902;2023-05-10T01:11:53;1.50;;;1.40;;
9094;SDS011;4583;49.796;9.902;2023-05-10T01:43:02;1.53;;;1.33;;
9094;SDS011;4583;49.796;9.902;2023-05-10T01:53:07;1.30;;;1.20;;
9094;SDS011;4583;49.796;9.902;2023-05-10T02:03:10;1.10;;;1.00;;
9094;SDS011;4583;49.796;9.902;2023-05-10T02:13:14;1.13;;;1.00;;
9094;SDS011;4583;49.796;9.902;2023-05-10T02:23:18;1.47;;;0.90;;
9094;SDS011;4583;49.796;9.902;2023-05-10T02:33:21;1.30;;;1.20;;
9094;SDS011;4583;49.796;9.902;2023-05-10T02:43:23;1.70;;;0.80;;
9094;SDS011;4583;49.796;9.902;2023-05-10T02:53:33;0.80;;;0.80;;
9094;SDS011;4583;49.796;9.902;2023-05-10T03:03:37;0.87;;;0.80;;
9094;SDS011;4583;49.796;9.902;2023-05-10T03:13:40;1.10;;;0.70;;
9094;SDS011;4583;49.796;9.902;2023-05-10T03:23:59;5.47;;;0.70;;
9094;SDS011;4583;49.796;9.902;2023-05-10T03:34:09;1.00;;;0.90;;
9094;SDS011;4583;49.796;9.902;2023-05-10T03:44:11;2.00;;;0.80;;
9094;SDS011;4583;49.796;9.902;2023-05-10T03:54:13;1.30;;;0.90;;
9094;SDS011;4583;49.796;9.902;2023-05-10T04:04:14;1.80;;;0.87;;
9094;SDS011;4583;49.796;9.902;2023-05-10T04:14:16;2.60;;;0.83;;
9094;SDS011;4583;49.796;9.902;2023-05-10T04:24:18;2.47;;;0.80;;
9094;SDS011;4583;49.796;9.902;2023-05-10T04:34:20;1.03;;;0.97;;
9094;SDS011;4583;49.796;9.902;2023-05-10T04:44:22;4.40;;;1.03;;
9094;SDS011;4583;49.796;9.902;2023-05-10T04:54:24;1.60;;;0.97;;
9094;SDS011;4583;49.796;9.902;2023-05-10T05:04:25;3.47;;;1.13;;
9094;SDS011;4583;49.796;9.902;2023-05-10T05:14:27;5.83;;;1.10;;
9094;SDS011;4583;49.796;9.902;2023-05-10T05:24:29;1.50;;;1.10;;
9094;SDS011;4583;49.796;9.902;2023-05-10T05:34:35;4.70;;;1.20;;
9094;SDS011;4583;49.796;9.902;2023-05-10T05:44:37;2.43;;;1.30;;
9094;SDS011;4583;49.796;9.902;2023-05-10T05:54:40;1.50;;;1.20;;
9094;SDS011;4583;49.796;9.902;2023-05-10T06:04:41;3.63;;;1.27;;
9094;SDS011;4583;49.796;9.902;2023-05-10T06:14:45;1.43;;;1.20;;
9094;SDS011;4583;49.796;9.902;2023-05-10T06:24:46;6.60;;;2.30;;
9094;SDS011;4583;49.796;9.902;2023-05-10T06:34:48;1.77;;;1.30;;
9094;SDS011;4583;49.796;9.902;2023-05-10T06:44:50;3.63;;;1.30;;
9094;SDS011;4583;49.796;9.902;2023-05-10T06:54:51;1.97;;;1.40;;
9094;SDS011;4583;49.796;9.902;2023-05-10T07:04:54;1.60;;;1.50;;
9094;SDS011;4583;49.796;9.902;2023-05-10T07:14:56;1.70;;;1.43;;
9094;SDS011;4583;49.796;9.902;2023-05-10T07:24:57;3.90;;;1.50;;
9094;SDS011;4583;49.796;9.902;2023-05-10T07:34:59;2.33;;;1.70;;
9094;SDS011;4583;49.796;9.902;2023-05-10T07:45:01;1.70;;;1.60;;
9094;SDS011;4583;49.796;9.902;2023-05-10T07:55:03;4.50;;;1.80;;
9094;SDS011;4583;49.796;9.902;2023-05-10T08:05:05;2.43;;;1.57;;
9094;SDS011;4583;49.796;9.902;2023-05-10T08:15:07;3.57;;;1.70;;
9094;SDS011;4583;49.796;9.902;2023-05-10T08:25:09;6.60;;;2.20;;
9094;SDS011;4583;49.796;9.902;2023-05-10T08:35:11;4.30;;;1.77;;
9094;SDS011;4583;49.796;9.902;2023-05-10T08:45:13;2.43;;;1.50;;
9094;SDS011;4583;49.796;9.902;2023-05-10T08:55:17;3.67;;;1.60;;
9094;SDS011;4583;49.796;9.902;2023-05-10T09:05:19;4.03;;;1.90;;
9094;SDS011;4583;49.796;9.902;2023-05-10T09:15:22;2.03;;;1.50;;
9094;SDS011;4583;49.796;9.902;2023-05-10T09:25:24;1.87;;;1.60;;
9094;SDS011;4583;49.796;9.902;2023-05-10T09:35:26;3.10;;;1.60;;
9094;SDS011;4583;49.796;9.902;2023-05-10T09:45:31;5.97;;;1.63;;
9094;SDS011;4583;49.796;9.902;2023-05-10T09:55:42;4.37;;;1.83;;
9094;SDS011;4583;49.796;9.902;2023-05-10T10:05:47;3.17;;;1.70;;
9094;SDS011;4583;49.796;9.902;2023-05-10T10:15:49;2.20;;;1.70;;
9094;SDS011;4583;49.796;9.902;2023-05-10T10:25:53;8.23;;;1.73;;
9094;SDS011;4583;49.796;9.902;2023-05-10T10:35:58;3.37;;;1.50;;
9094;SDS011;4583;49.796;9.902;2023-05-10T10:46:09;5.83;;;1.43;;
9094;SDS011;4583;49.796;9.902;2023-05-10T10:56:15;2.07;;;1.50;;
9094;SDS011;4583;49.796;9.902;2023-05-10T11:06:34;2.00;;;1.33;;
9094;SDS011;4583;49.796;9.902;2023-05-10T11:16:41;2.23;;;1.30;;
9094;SDS011;4583;49.796;9.902;2023-05-10T11:26:46;2.50;;;1.50;;
9094;SDS011;4583;49.796;9.902;2023-05-10T11:36:51;2.53;;;1.30;;
9094;SDS011;4583;49.796;9.902;2023-05-10T11:46:57;13.60;;;1.70;;
9094;SDS011;4583;49.796;9.902;2023-05-10T11:57:00;2.27;;;1.20;;
9094;SDS011;4583;49.796;9.902;2023-05-10T12:07:02;3.27;;;1.20;;
9094;SDS011;4583;49.796;9.902;2023-05-10T12:17:04;3.30;;;1.40;;
9094;SDS011;4583;49.796;9.902;2023-05-10T12:27:07;3.20;;;1.40;;
9094;SDS011;4583;49.796;9.902;2023-05-10T12:37:09;2.23;;;1.30;;
9094;SDS011;4583;49.796;9.902;2023-05-10T12:47:11;3.30;;;1.90;;
9094;SDS011;4583;49.796;9.902;2023-05-10T12:57:13;9.13;;;2.50;;
9094;SDS011;4583;49.796;9.902;2023-05-10T13:07:14;6.13;;;2.00;;
9094;SDS011;4583;49.796;9.902;2023-05-10T13:17:16;2.00;;;1.77;;
9094;SDS011;4583;49.796;9.902;2023-05-10T13:27:18;2.00;;;1.50;;
9094;SDS011;4583;49.796;9.902;2023-05-10T13:37:20;3.10;;;1.97;;
9094;SDS011;4583;49.796;9.902;2023-05-10T13:47:22;3.60;;;2.20;;
9094;SDS011;4583;49.796;9.902;2023-05-10T13:57:24;6.90;;;2.20;;
9094;SDS011;4583;49.796;9.902;2023-05-10T14:07:26;2.70;;;2.00;;
9094;SDS011;4583;49.796;9.902;2023-05-10T14:17:28;4.33;;;2.03;;
9094;SDS011;4583;49.796;9.902;2023-05-10T14:27:29;3.47;;;1.90;;
9094;SDS011;4583;49.796;9.902;2023-05-10T14:37:31;3.53;;;2.20;;
9094;SDS011;4583;49.796;9.902;2023-05-10T14:47:33;2.47;;;1.93;;
9094;SDS011;4583;49.796;9.902;2023-05-10T14:57:35;3.87;;;2.20;;
9094;SDS011;4583;49.796;9.902;2023-05-10T15:07:37;5.47;;;2.17;;
9094;SDS011;4583;49.796;9.902;2023-05-10T15:17:38;4.00;;;2.23;;
9094;SDS011;4583;49.796;9.902;2023-05-10T15:27:40;2.50;;;2.10;;
9094;SDS011;4583;49.796;9.902;2023-05-10T15:37:45;2.67;;;2.33;;
9094;SDS011;4583;49.796;9.902;2023-05-10T15:47:48;2.47;;;2.00;;
9094;SDS011;4583;49.796;9.902;2023-05-10T15:57:50;7.70;;;2.10;;
9094;SDS011;4583;49.796;9.902;2023-05-10T16:07:51;2.63;;;2.10;;
9094;SDS011;4583;49.796;9.902;2023-05-10T16:17:53;8.87;;;2.27;;
9094;SDS011;4583;49.796;9.902;2023-05-10T16:27:55;2.13;;;1.80;;
9094;SDS011;4583;49.796;9.902;2023-05-10T16:37:57;4.50;;;2.53;;
9094;SDS011;4583;49.796;9.902;2023-05-10T16:47:59;2.30;;;1.73;;
9094;SDS011;4583;49.796;9.902;2023-05-10T16:58:01;6.27;;;1.70;;
9094;SDS011;4583;49.796;9.902;2023-05-10T17:08:03;3.57;;;1.60;;
9094;SDS011;4583;49.796;9.902;2023-05-10T17:18:04;4.53;;;1.63;;
9094;SDS011;4583;49.796;9.902;2023-05-10T17:28:07;2.37;;;1.50;;
9094;SDS011;4583;49.796;9.902;2023-05-10T17:38:09;7.57;;;2.00;;
9094;SDS011;4583;49.796;9.902;2023-05-10T17:48:11;4.83;;;1.90;;
9094;SDS011;4583;49.796;9.902;2023-05-10T17:58:13;6.67;;;1.70;;
9094;SDS011;4583;49.796;9.902;2023-05-10T18:08:15;5.67;;;1.60;;
9094;SDS011;4583;49.796;9.902;2023-05-10T18:18:22;4.27;;;1.80;;
9094;SDS011;4583;49.796;9.902;2023-05-10T18:28:24;2.60;;;1.77;;
9094;SDS011;4583;49.796;9.902;2023-05-10T18:38:26;5.07;;;1.97;;
9094;SDS011;4583;49.796;9.902;2023-05-10T18:48:28;6.03;;;2.37;;
9094;SDS011;4583;49.796;9.902;2023-05-10T18:58:29;5.90;;;2.70;;
9094;SDS011;4583;49.796;9.902;2023-05-10T19:08:31;5.07;;;3.63;;
9094;SDS011;4583;49.796;9.902;2023-05-10T19:18:33;3.60;;;2.10;;
9094;SDS011;4583;49.796;9.902;2023-05-10T19:28:35;8.70;;;2.73;;
9094;SDS011;4583;49.796;9.902;2023-05-10T19:38:37;5.70;;;3.07;;
9094;SDS011;4583;49.796;9.902;2023-05-10T19:48:38;8.57;;;3.27;;
9094;SDS011;4583;49.796;9.902;2023-05-10T19:58:40;7.13;;;2.90;;
9094;SDS011;4583;49.796;9.902;2023-05-10T20:08:43;4.77;;;2.90;;
9094;SDS011;4583;49.796;9.902;2023-05-10T20:18:45;2.73;;;2.27;;
9094;SDS011;4583;49.796;9.902;2023-05-10T20:28:46;4.97;;;2.03;;
9094;SDS011;4583;49.796;9.902;2023-05-10T20:38:48;3.00;;;1.80;;
9094;SDS011;4583;49.796;9.902;2023-05-10T20:48:50;6.23;;;2.13;;
9094;SDS011;4583;49.796;9.902;2023-05-10T20:58:52;2.33;;;1.73;;
9094;SDS011;4583;49.796;9.902;2023-05-10T21:08:53;5.20;;;2.00;;
9094;SDS011;4583;49.796;9.902;2023-05-10T21:18:55;3.27;;;1.80;;
9094;SDS011;4583;49.796;9.902;2023-05-10T21:28:57;8.63;;;2.70;;
9094;SDS011;4583;49.796;9.902;2023-05-10T21:38:59;4.03;;;2.30;;
9094;SDS011;4583;49.796;9.902;2023-05-10T21:49:01;4.60;;;2.60;;
9094;SDS011;4583;49.796;9.902;2023-05-10T21:59:02;5.23;;;2.93;;
9094;SDS011;4583;49.796;9.902;2023-05-10T22:09:04;2.80;;;2.47;;
9094;SDS011;4583;49.796;9.902;2023-05-10T22:21:59;5.17;;;3.10;;
9094;SDS011;4583;49.796;9.902;2023-05-10T22:32:01;5.97;;;2.90;;
9094;SDS011;4583;49.796;9.902;2023-05-10T22:42:05;8.50;;;3.57;;
9094;SDS011;4583;49.796;9.902;2023-05-10T22:52:08;6.50;;;3.67;;
9094;SDS011;4583;49.796;9.902;2023-05-10T23:02:10;5.80;;;2.97;;
9094;SDS011;4583;49.796;9.902;2023-05-10T23:12:11;5.60;;;2.70;;
9094;SDS011;4583;49.796;9.902;2023-05-10T23:22:13;6.43;;;2.30;;
9094;SDS011;4583;49.796;9.902;2023-05-10T23:32:15;5.77;;;2.10;;
9094;SDS011;4583;49.796;9.902;2023-05-10T23:42:16;5.17;;;2.20;;
9094;SDS011;4583;49.796;9.902;2023-05-10T23:52:18;4.93;;;1.83;;
